sensor_id;sensor_type;location;lat;lon;timestamp;pressure;altitude;pressure_sealevel;temperature;humidity
71344;BME280;59146;43.850;25.948;2022-12-29T00:02:14;102339.91;;;1.84;79.53
71344;BME280;59146;43.850;25.948;2022-12-29T00:04:39;102286.50;;;1.48;80.09
71344;BME280;59146;43.850;25.948;2022-12-29T00:07:05;102231.50;;;1.37;79.05
71344;BME280;59146;43.850;25.948;2022-12-29T00:09:31;102272.75;;;1.45;79.32
71344;BME280;59146;43.850;25.948;2022-12-29T00:11:57;102338.19;;;1.86;78.52
71344;BME280;59146;43.850;25.948;2022-12-29T00:14:23;102347.56;;;1.72;79.10
71344;BME280;59146;43.850;25.948;2022-12-29T00:17:07;102334.66;;;1.63;79.51
71344;BME280;59146;43.850;25.948;2022-12-29T00:19:33;102186.41;;;0.49;79.82
71344;BME280;59146;43.850;25.948;2022-12-29T00:22:17;102301.03;;;1.36;80.00
71344;BME280;59146;43.850;25.948;2022-12-29T00:25:01;102116.78;;;0.16;80.33
71344;BME280;59146;43.850;25.948;2022-12-29T00:27:27;102274.19;;;0.99;80.69
71344;BME280;59146;43.850;25.948;2022-12-29T00:30:22;102358.66;;;1.57;80.45
71344;BME280;59146;43.850;25.948;2022-12-29T00:33:20;102339.78;;;1.60;80.27
71344;BME280;59146;43.850;25.948;2022-12-29T00:36:08;102058.44;;;0.00;80.43
71344;BME280;59146;43.850;25.948;2022-12-29T00:38:38;102208.06;;;0.82;80.40
71344;BME280;59146;43.850;25.948;2022-12-29T00:41:24;102342.44;;;1.75;80.17
71344;BME280;59146;43.850;25.948;2022-12-29T00:44:11;102357.03;;;1.73;80.29
71344;BME280;59146;43.850;25.948;2022-12-29T00:46:39;102351.09;;;1.92;80.30
71344;BME280;59146;43.850;25.948;2022-12-29T00:49:06;102265.03;;;1.51;79.70
71344;BME280;59146;43.850;25.948;2022-12-29T00:51:52;102345.94;;;1.92;79.80
71344;BME280;59146;43.850;25.948;2022-12-29T00:54:19;102348.53;;;1.92;79.87
71344;BME280;59146;43.850;25.948;2022-12-29T00:56:48;102278.78;;;1.51;79.02
71344;BME280;59146;43.850;25.948;2022-12-29T00:59:14;102295.97;;;1.52;79.49
71344;BME280;59146;43.850;25.948;2022-12-29T01:01:40;102339.09;;;1.97;79.60
71344;BME280;59146;43.850;25.948;2022-12-29T01:04:06;102303.69;;;1.54;80.17
71344;BME280;59146;43.850;25.948;2022-12-29T01:06:33;102332.13;;;1.75;80.24
71344;BME280;59146;43.850;25.948;2022-12-29T01:08:59;102302.00;;;1.57;80.06
71344;BME280;59146;43.850;25.948;2022-12-29T01:11:43;102304.56;;;1.54;80.45
71344;BME280;59146;43.850;25.948;2022-12-29T01:14:08;102231.50;;;1.30;80.45
71344;BME280;59146;43.850;25.948;2022-12-29T01:16:34;102259.88;;;1.45;80.79
71344;BME280;59146;43.850;25.948;2022-12-29T01:19:01;102301.16;;;1.63;81.06
71344;BME280;59146;43.850;25.948;2022-12-29T01:21:26;102178.13;;;0.97;80.55
71344;BME280;59146;43.850;25.948;2022-12-29T01:23:52;102222.84;;;1.22;81.32
71344;BME280;59146;43.850;25.948;2022-12-29T01:26:18;102316.66;;;1.72;81.38
71344;BME280;59146;43.850;25.948;2022-12-29T01:28:44;102303.75;;;1.65;81.92
71344;BME280;59146;43.850;25.948;2022-12-29T01:31:11;102302.91;;;1.69;82.11
71344;BME280;59146;43.850;25.948;2022-12-29T01:33:37;102310.63;;;1.69;81.76
71344;BME280;59146;43.850;25.948;2022-12-29T01:36:04;102290.75;;;1.45;81.96
71344;BME280;59146;43.850;25.948;2022-12-29T01:38:30;102299.34;;;1.41;82.41
71344;BME280;59146;43.850;25.948;2022-12-29T01:40:55;102244.28;;;1.16;81.62
71344;BME280;59146;43.850;25.948;2022-12-29T01:43:21;102245.13;;;1.12;81.64
71344;BME280;59146;43.850;25.948;2022-12-29T01:45:51;102218.53;;;1.15;80.96
71344;BME280;59146;43.850;25.948;2022-12-29T01:48:19;102257.19;;;1.19;81.69
71344;BME280;59146;43.850;25.948;2022-12-29T01:50:50;102266.56;;;1.16;81.72
71344;BME280;59146;43.850;25.948;2022-12-29T01:53:17;102303.63;;;1.37;82.17
71344;BME280;59146;43.850;25.948;2022-12-29T01:55:48;102263.06;;;1.02;82.28
71344;BME280;59146;43.850;25.948;2022-12-29T01:58:14;102212.31;;;0.75;82.93
71344;BME280;59146;43.850;25.948;2022-12-29T02:00:40;102292.16;;;0.92;83.91
71344;BME280;59146;43.850;25.948;2022-12-29T02:03:06;102203.56;;;0.52;83.80
71344;BME280;59146;43.850;25.948;2022-12-29T02:05:38;102295.69;;;1.06;83.19
71344;BME280;59146;43.850;25.948;2022-12-29T02:08:05;102259.56;;;0.91;82.90
71344;BME280;59146;43.850;25.948;2022-12-29T02:10:33;102268.16;;;0.93;83.01
71344;BME280;59146;43.850;25.948;2022-12-29T02:13:00;102209.63;;;0.58;83.23
71344;BME280;59146;43.850;25.948;2022-12-29T02:16:04;102268.94;;;0.82;84.73
71344;BME280;59146;43.850;25.948;2022-12-29T02:32:03;102275.84;;;0.88;84.78
71344;BME280;59146;43.850;25.948;2022-12-29T02:37:21;102196.69;;;0.49;83.12
71344;BME280;59146;43.850;25.948;2022-12-29T02:43:14;102254.13;;;0.51;84.10
71344;BME280;59146;43.850;25.948;2022-12-29T02:45:47;102264.66;;;0.83;82.80
71344;BME280;59146;43.850;25.948;2022-12-29T02:48:37;102255.91;;;0.61;83.10
71344;BME280;59146;43.850;25.948;2022-12-29T02:51:46;102253.25;;;0.48;83.13
71344;BME280;59146;43.850;25.948;2022-12-29T02:54:17;102235.16;;;0.37;82.71
71344;BME280;59146;43.850;25.948;2022-12-29T02:57:01;102229.19;;;0.40;82.94
71344;BME280;59146;43.850;25.948;2022-12-29T02:59:27;102216.31;;;0.35;82.35
71344;BME280;59146;43.850;25.948;2022-12-29T03:12:47;102159.25;;;-0.25;82.47
71344;BME280;59146;43.850;25.948;2022-12-29T03:15:53;102208.31;;;0.05;82.05
71344;BME280;59146;43.850;25.948;2022-12-29T03:21:36;102234.16;;;0.20;81.99
71344;BME280;59146;43.850;25.948;2022-12-29T03:24:30;102188.53;;;-0.05;81.53
71344;BME280;59146;43.850;25.948;2022-12-29T03:26:59;102194.50;;;-0.08;81.79
71344;BME280;59146;43.850;25.948;2022-12-29T03:29:30;102171.31;;;-0.15;81.97
71344;BME280;59146;43.850;25.948;2022-12-29T03:31:59;102236.00;;;0.33;80.99
71344;BME280;59146;43.850;25.948;2022-12-29T03:34:26;102259.00;;;0.21;82.08
71344;BME280;59146;43.850;25.948;2022-12-29T03:37:00;102248.78;;;0.27;82.01
71344;BME280;59146;43.850;25.948;2022-12-29T03:39:27;102260.09;;;0.46;81.39
71344;BME280;59146;43.850;25.948;2022-12-29T03:42:03;102246.75;;;-0.06;82.47
71344;BME280;59146;43.850;25.948;2022-12-29T03:44:38;102202.78;;;-0.36;83.17
71344;BME280;59146;43.850;25.948;2022-12-29T03:47:05;102215.72;;;-0.25;83.20
71344;BME280;59146;43.850;25.948;2022-12-29T03:49:31;102193.22;;;-0.47;83.56
71344;BME280;59146;43.850;25.948;2022-12-29T03:51:56;102242.34;;;-0.17;83.60
71344;BME280;59146;43.850;25.948;2022-12-29T03:54:22;102236.50;;;-0.01;82.63
71344;BME280;59146;43.850;25.948;2022-12-29T03:56:47;102260.72;;;0.22;82.08
71344;BME280;59146;43.850;25.948;2022-12-29T03:59:13;102177.06;;;-0.37;82.79
71344;BME280;59146;43.850;25.948;2022-12-29T04:01:38;102196.91;;;-0.23;82.96
71344;BME280;59146;43.850;25.948;2022-12-29T04:04:04;102263.19;;;0.13;82.28
71344;BME280;59146;43.850;25.948;2022-12-29T04:06:29;102266.78;;;0.29;81.86
71344;BME280;59146;43.850;25.948;2022-12-29T04:08:54;102251.31;;;0.26;81.54
71344;BME280;59146;43.850;25.948;2022-12-29T04:11:21;102214.22;;;-0.02;81.59
71344;BME280;59146;43.850;25.948;2022-12-29T04:13:46;102272.66;;;0.14;82.11
71344;BME280;59146;43.850;25.948;2022-12-29T04:16:12;102179.63;;;-0.37;81.95
71344;BME280;59146;43.850;25.948;2022-12-29T04:18:37;102255.63;;;0.28;81.70
71344;BME280;59146;43.850;25.948;2022-12-29T04:21:03;102278.06;;;0.44;81.81
71344;BME280;59146;43.850;25.948;2022-12-29T04:23:34;102200.56;;;-0.01;81.47
71344;BME280;59146;43.850;25.948;2022-12-29T04:26:00;102173.94;;;-0.11;81.08
71344;BME280;59146;43.850;25.948;2022-12-29T04:28:25;102250.28;;;0.04;81.90
71344;BME280;59146;43.850;25.948;2022-12-29T04:30:51;102264.06;;;0.15;81.71
71344;BME280;59146;43.850;25.948;2022-12-29T04:33:16;102250.19;;;-0.05;82.07
71344;BME280;59146;43.850;25.948;2022-12-29T04:35:43;102244.34;;;0.13;82.39
71344;BME280;59146;43.850;25.948;2022-12-29T04:38:09;102279.78;;;0.45;81.89
71344;BME280;59146;43.850;25.948;2022-12-29T04:40:34;102177.06;;;-0.39;82.24
71344;BME280;59146;43.850;25.948;2022-12-29T04:43:00;102244.97;;;-0.11;83.07
71344;BME280;59146;43.850;25.948;2022-12-29T04:45:26;102288.59;;;-0.14;84.06
71344;BME280;59146;43.850;25.948;2022-12-29T04:47:51;102293.00;;;-0.04;84.83
71344;BME280;59146;43.850;25.948;2022-12-29T04:50:16;102186.41;;;-0.45;83.74
71344;BME280;59146;43.850;25.948;2022-12-29T04:52:42;102252.81;;;0.01;83.62
71344;BME280;59146;43.850;25.948;2022-12-29T04:55:08;102253.69;;;0.03;83.23
71344;BME280;59146;43.850;25.948;2022-12-29T04:57:33;102217.66;;;-0.03;82.37
71344;BME280;59146;43.850;25.948;2022-12-29T04:59:58;102209.19;;;0.04;81.92
71344;BME280;59146;43.850;25.948;2022-12-29T05:02:24;102215.03;;;-0.08;82.07
71344;BME280;59146;43.850;25.948;2022-12-29T05:04:49;102256.13;;;-0.09;83.00
71344;BME280;59146;43.850;25.948;2022-12-29T05:07:15;102280.34;;;0.14;83.05
71344;BME280;59146;43.850;25.948;2022-12-29T05:09:41;102269.09;;;0.03;83.41
71344;BME280;59146;43.850;25.948;2022-12-29T05:12:07;102296.66;;;0.19;83.87
71344;BME280;59146;43.850;25.948;2022-12-29T05:14:32;102233.78;;;-0.16;83.49
71344;BME280;59146;43.850;25.948;2022-12-29T05:16:58;102289.72;;;0.08;83.32
71344;BME280;59146;43.850;25.948;2022-12-29T05:19:23;102212.13;;;-0.41;83.40
71344;BME280;59146;43.850;25.948;2022-12-29T05:21:48;102255.09;;;-0.26;83.40
71344;BME280;59146;43.850;25.948;2022-12-29T05:24:14;102281.72;;;-0.18;83.12
71344;BME280;59146;43.850;25.948;2022-12-29T05:26:40;102224.06;;;-0.44;82.69
71344;BME280;59146;43.850;25.948;2022-12-29T05:29:06;102290.34;;;-0.13;83.01
71344;BME280;59146;43.850;25.948;2022-12-29T05:31:31;102279.94;;;-0.24;83.62
71344;BME280;59146;43.850;25.948;2022-12-29T05:33:57;102293.97;;;0.07;83.24
71344;BME280;59146;43.850;25.948;2022-12-29T05:36:22;102214.44;;;-0.60;83.87
71344;BME280;59146;43.850;25.948;2022-12-29T05:38:48;102293.84;;;-0.05;83.81
71344;BME280;59146;43.850;25.948;2022-12-29T05:41:13;102289.47;;;-0.15;84.34
71344;BME280;59146;43.850;25.948;2022-12-29T05:43:39;102287.97;;;0.05;83.45
71344;BME280;59146;43.850;25.948;2022-12-29T05:46:04;102116.75;;;-0.77;82.74
71344;BME280;59146;43.850;25.948;2022-12-29T05:48:30;102245.97;;;0.02;82.47
71344;BME280;59146;43.850;25.948;2022-12-29T05:50:55;102248.69;;;0.18;82.06
71344;BME280;59146;43.850;25.948;2022-12-29T05:53:21;102272.72;;;0.23;82.43
71344;BME280;59146;43.850;25.948;2022-12-29T05:55:47;102260.56;;;0.07;82.83
71344;BME280;59146;43.850;25.948;2022-12-29T05:58:14;102297.53;;;0.20;83.44
71344;BME280;59146;43.850;25.948;2022-12-29T06:00:39;102276.16;;;0.25;82.04
71344;BME280;59146;43.850;25.948;2022-12-29T06:03:05;102295.28;;;0.51;82.04
71344;BME280;59146;43.850;25.948;2022-12-29T06:05:30;102240.16;;;0.22;81.88
71344;BME280;59146;43.850;25.948;2022-12-29T06:07:56;102259.13;;;0.38;81.38
71344;BME280;59146;43.850;25.948;2022-12-29T06:10:21;102203.13;;;-0.01;80.32
71344;BME280;59146;43.850;25.948;2022-12-29T06:12:47;102131.59;;;-0.50;80.03
71344;BME280;59146;43.850;25.948;2022-12-29T06:15:12;102279.69;;;0.36;81.32
71344;BME280;59146;43.850;25.948;2022-12-29T06:17:38;102197.00;;;-0.14;81.75
71344;BME280;59146;43.850;25.948;2022-12-29T06:20:04;102187.56;;;-0.16;81.45
71344;BME280;59146;43.850;25.948;2022-12-29T06:22:30;102204.78;;;-0.06;82.16
71344;BME280;59146;43.850;25.948;2022-12-29T06:24:55;102260.84;;;0.34;82.07
71344;BME280;59146;43.850;25.948;2022-12-29T06:27:21;102209.94;;;-0.05;82.11
71344;BME280;59146;43.850;25.948;2022-12-29T06:31:09;102213.03;;;-0.36;83.53
71344;BME280;59146;43.850;25.948;2022-12-29T06:33:34;102282.97;;;0.20;83.36
71344;BME280;59146;43.850;25.948;2022-12-29T06:35:59;102272.66;;;0.14;82.65
71344;BME280;59146;43.850;25.948;2022-12-29T06:38:25;102297.69;;;0.38;82.44
71344;BME280;59146;43.850;25.948;2022-12-29T06:40:50;102282.41;;;0.50;81.94
71344;BME280;59146;43.850;25.948;2022-12-29T06:43:16;102292.66;;;0.47;81.56
71344;BME280;59146;43.850;25.948;2022-12-29T06:45:41;102248.75;;;0.23;80.62
71344;BME280;59146;43.850;25.948;2022-12-29T06:48:07;102276.41;;;0.49;80.76
71344;BME280;59146;43.850;25.948;2022-12-29T06:50:32;102311.56;;;0.53;81.87
71344;BME280;59146;43.850;25.948;2022-12-29T06:52:58;102313.44;;;0.71;81.83
71344;BME280;59146;43.850;25.948;2022-12-29T06:55:23;102300.59;;;0.75;82.24
71344;BME280;59146;43.850;25.948;2022-12-29T06:57:48;102240.44;;;0.57;81.59
71344;BME280;59146;43.850;25.948;2022-12-29T07:00:14;102257.78;;;0.80;80.41
71344;BME280;59146;43.850;25.948;2022-12-29T07:02:40;102252.69;;;0.87;79.73
71344;BME280;59146;43.850;25.948;2022-12-29T07:05:05;102304.41;;;1.30;78.67
71344;BME280;59146;43.850;25.948;2022-12-29T07:07:32;102325.03;;;1.32;79.07
71344;BME280;59146;43.850;25.948;2022-12-29T07:09:57;102260.34;;;0.82;79.03
71344;BME280;59146;43.850;25.948;2022-12-29T07:12:23;102268.19;;;0.96;78.86
71344;BME280;59146;43.850;25.948;2022-12-29T07:14:48;102332.66;;;1.17;78.81
71344;BME280;59146;43.850;25.948;2022-12-29T07:17:13;102330.84;;;1.04;79.38
71344;BME280;59146;43.850;25.948;2022-12-29T07:19:39;102282.66;;;0.82;79.89
71344;BME280;59146;43.850;25.948;2022-12-29T07:22:04;102308.41;;;0.86;80.29
71344;BME280;59146;43.850;25.948;2022-12-29T07:24:30;102298.66;;;0.47;81.86
71344;BME280;59146;43.850;25.948;2022-12-29T07:26:55;102335.69;;;0.66;82.13
71344;BME280;59146;43.850;25.948;2022-12-29T07:29:20;102274.44;;;0.24;82.51
71344;BME280;59146;43.850;25.948;2022-12-29T07:31:46;102327.88;;;0.52;82.90
71344;BME280;59146;43.850;25.948;2022-12-29T07:34:11;102328.66;;;0.48;83.09
71344;BME280;59146;43.850;25.948;2022-12-29T07:36:37;102351.84;;;0.51;84.12
71344;BME280;59146;43.850;25.948;2022-12-29T07:39:02;102273.34;;;0.01;84.39
71344;BME280;59146;43.850;25.948;2022-12-29T07:41:28;102256.06;;;-0.15;85.15
71344;BME280;59146;43.850;25.948;2022-12-29T07:43:53;102319.03;;;0.28;85.54
71344;BME280;59146;43.850;25.948;2022-12-29T07:46:19;102258.91;;;0.12;85.06
71344;BME280;59146;43.850;25.948;2022-12-29T07:48:44;102348.59;;;0.70;84.85
71344;BME280;59146;43.850;25.948;2022-12-29T07:51:09;102265.94;;;0.30;85.14
71344;BME280;59146;43.850;25.948;2022-12-29T07:53:35;102349.56;;;0.82;85.00
71344;BME280;59146;43.850;25.948;2022-12-29T07:56:00;102314.88;;;0.40;85.25
71344;BME280;59146;43.850;25.948;2022-12-29T07:58:26;102250.31;;;0.09;85.35
71344;BME280;59146;43.850;25.948;2022-12-29T08:00:55;102324.56;;;0.70;84.84
71344;BME280;59146;43.850;25.948;2022-12-29T08:03:21;102346.13;;;0.84;85.00
71344;BME280;59146;43.850;25.948;2022-12-29T08:05:46;102277.41;;;0.65;84.63
71344;BME280;59146;43.850;25.948;2022-12-29T08:08:12;102317.19;;;1.15;83.18
71344;BME280;59146;43.850;25.948;2022-12-29T08:10:37;102311.31;;;1.33;82.57
71344;BME280;59146;43.850;25.948;2022-12-29T08:13:02;102270.84;;;1.15;81.75
71344;BME280;59146;43.850;25.948;2022-12-29T08:15:28;102303.66;;;1.42;82.01
71344;BME280;59146;43.850;25.948;2022-12-29T08:17:53;102252.00;;;1.16;82.12
71344;BME280;59146;43.850;25.948;2022-12-29T08:20:18;102257.09;;;1.04;82.56
71344;BME280;59146;43.850;25.948;2022-12-29T08:22:44;102237.25;;;0.88;83.07
71344;BME280;59146;43.850;25.948;2022-12-29T08:25:09;102352.72;;;1.69;83.19
71344;BME280;59146;43.850;25.948;2022-12-29T08:27:35;102316.50;;;1.45;83.16
71344;BME280;59146;43.850;25.948;2022-12-29T08:30:00;102226.19;;;1.03;83.52
71344;BME280;59146;43.850;25.948;2022-12-29T08:32:26;102268.41;;;1.32;83.74
71344;BME280;59146;43.850;25.948;2022-12-29T08:34:53;102308.06;;;1.73;84.02
71344;BME280;59146;43.850;25.948;2022-12-29T08:37:19;102274.56;;;1.69;83.00
71344;BME280;59146;43.850;25.948;2022-12-29T08:39:45;102275.50;;;1.86;82.63
71344;BME280;59146;43.850;25.948;2022-12-29T08:42:10;102264.34;;;1.88;82.44
71344;BME280;59146;43.850;25.948;2022-12-29T08:44:36;102330.66;;;2.51;80.80
71344;BME280;59146;43.850;25.948;2022-12-29T08:47:01;102289.34;;;2.34;80.14
71344;BME280;59146;43.850;25.948;2022-12-29T08:49:26;102291.06;;;2.41;79.87
71344;BME280;59146;43.850;25.948;2022-12-29T08:51:52;102268.72;;;2.40;79.69
71344;BME280;59146;43.850;25.948;2022-12-29T08:54:17;102243.75;;;2.24;79.85
71344;BME280;59146;43.850;25.948;2022-12-29T08:56:43;102311.72;;;2.63;79.91
71344;BME280;59146;43.850;25.948;2022-12-29T08:59:08;102294.50;;;2.87;79.14
71344;BME280;59146;43.850;25.948;2022-12-29T09:01:33;102254.97;;;2.73;78.49
71344;BME280;59146;43.850;25.948;2022-12-29T09:04:01;102330.56;;;3.46;77.85
71344;BME280;59146;43.850;25.948;2022-12-29T09:06:27;102294.44;;;3.25;77.48
71344;BME280;59146;43.850;25.948;2022-12-29T09:08:54;102303.03;;;3.36;77.43
71344;BME280;59146;43.850;25.948;2022-12-29T09:11:22;102315.03;;;3.55;77.23
71344;BME280;59146;43.850;25.948;2022-12-29T09:13:48;102313.31;;;3.57;76.88
71344;BME280;59146;43.850;25.948;2022-12-29T09:16:15;102287.47;;;3.57;76.59
71344;BME280;59146;43.850;25.948;2022-12-29T09:18:40;102268.50;;;3.61;76.58
71344;BME280;59146;43.850;25.948;2022-12-29T09:21:07;102312.28;;;3.96;75.92
71344;BME280;59146;43.850;25.948;2022-12-29T09:23:33;102284.81;;;3.77;76.14
71344;BME280;59146;43.850;25.948;2022-12-29T09:25:59;102288.16;;;3.97;75.73
71344;BME280;59146;43.850;25.948;2022-12-29T09:28:25;102280.41;;;3.95;76.32
71344;BME280;59146;43.850;25.948;2022-12-29T09:30:50;102266.59;;;4.01;75.82
71344;BME280;59146;43.850;25.948;2022-12-29T09:33:17;102202.09;;;3.78;75.70
71344;BME280;59146;43.850;25.948;2022-12-29T09:35:49;102262.06;;;4.30;75.19
71344;BME280;59146;43.850;25.948;2022-12-29T09:38:15;102257.66;;;4.43;74.71
71344;BME280;59146;43.850;25.948;2022-12-29T09:40:44;102268.81;;;4.54;74.43
71344;BME280;59146;43.850;25.948;2022-12-29T09:48:44;102189.44;;;4.53;73.31
71344;BME280;59146;43.850;25.948;2022-12-29T09:51:15;102204.94;;;4.57;73.50
71344;BME280;59146;43.850;25.948;2022-12-29T09:54:00;102257.09;;;5.06;73.40
71344;BME280;59146;43.850;25.948;2022-12-29T09:56:29;102251.88;;;5.09;73.08
71344;BME280;59146;43.850;25.948;2022-12-29T09:59:00;102189.94;;;4.88;72.66
71344;BME280;59146;43.850;25.948;2022-12-29T10:01:34;102197.59;;;4.99;72.42
71344;BME280;59146;43.850;25.948;2022-12-29T10:04:02;102176.69;;;5.17;71.90
71344;BME280;59146;43.850;25.948;2022-12-29T10:06:37;102244.75;;;5.99;70.47
71344;BME280;59146;43.850;25.948;2022-12-29T10:09:30;102252.38;;;6.10;69.57
71344;BME280;59146;43.850;25.948;2022-12-29T10:15:02;102255.00;;;6.08;69.29
71344;BME280;59146;43.850;25.948;2022-12-29T10:20:48;102249.00;;;6.05;69.17
71344;BME280;59146;43.850;25.948;2022-12-29T10:23:35;102249.69;;;6.16;69.19
71344;BME280;59146;43.850;25.948;2022-12-29T10:26:02;102172.50;;;5.74;69.01
71344;BME280;59146;43.850;25.948;2022-12-29T10:28:48;102241.06;;;6.14;69.34
71344;BME280;59146;43.850;25.948;2022-12-29T10:31:23;102210.84;;;6.10;68.78
71344;BME280;59146;43.850;25.948;2022-12-29T10:33:52;102242.50;;;6.34;69.00
71344;BME280;59146;43.850;25.948;2022-12-29T10:36:37;102239.66;;;6.48;68.09
71344;BME280;59146;43.850;25.948;2022-12-29T10:41:43;102183.44;;;6.49;67.49
71344;BME280;59146;43.850;25.948;2022-12-29T10:44:14;102209.78;;;6.76;67.32
71344;BME280;59146;43.850;25.948;2022-12-29T10:46:42;102150.59;;;6.46;67.15
71344;BME280;59146;43.850;25.948;2022-12-29T10:49:16;102006.66;;;5.66;67.04
71344;BME280;59146;43.850;25.948;2022-12-29T10:51:44;102160.34;;;6.79;66.51
71344;BME280;59146;43.850;25.948;2022-12-29T10:57:08;102160.88;;;6.96;65.92
71344;BME280;59146;43.850;25.948;2022-12-29T10:59:37;102043.50;;;6.35;65.81
71344;BME280;59146;43.850;25.948;2022-12-29T11:02:26;102206.22;;;7.26;66.03
71344;BME280;59146;43.850;25.948;2022-12-29T11:05:03;102192.16;;;7.35;65.43
71344;BME280;59146;43.850;25.948;2022-12-29T11:07:32;102146.28;;;6.89;65.92
71344;BME280;59146;43.850;25.948;2022-12-29T11:10:30;102198.13;;;7.40;65.57
71344;BME280;59146;43.850;25.948;2022-12-29T11:13:02;102206.50;;;7.54;65.54
71344;BME280;59146;43.850;25.948;2022-12-29T11:15:42;102116.09;;;7.25;64.50
71344;BME280;59146;43.850;25.948;2022-12-29T11:18:19;102175.97;;;7.62;64.01
71344;BME280;59146;43.850;25.948;2022-12-29T11:20:46;102143.22;;;7.53;64.16
71344;BME280;59146;43.850;25.948;2022-12-29T11:23:41;102182.59;;;7.76;64.51
71344;BME280;59146;43.850;25.948;2022-12-29T11:28:39;102182.44;;;8.19;63.39
71344;BME280;59146;43.850;25.948;2022-12-29T11:31:07;102165.84;;;8.23;62.62
71344;BME280;59146;43.850;25.948;2022-12-29T11:33:34;102172.66;;;8.30;62.86
71344;BME280;59146;43.850;25.948;2022-12-29T11:36:21;102155.41;;;8.25;63.01
71344;BME280;59146;43.850;25.948;2022-12-29T11:38:56;102103.69;;;8.11;63.27
71344;BME280;59146;43.850;25.948;2022-12-29T11:41:29;102152.56;;;8.67;61.93
71344;BME280;59146;43.850;25.948;2022-12-29T11:43:57;102149.00;;;8.39;62.36
71344;BME280;59146;43.850;25.948;2022-12-29T11:46:32;102154.47;;;8.61;62.50
71344;BME280;59146;43.850;25.948;2022-12-29T11:48:59;102144.06;;;8.93;61.32
71344;BME280;59146;43.850;25.948;2022-12-29T11:51:47;102161.13;;;9.05;61.16
71344;BME280;59146;43.850;25.948;2022-12-29T11:54:21;102149.97;;;9.00;61.24
71344;BME280;59146;43.850;25.948;2022-12-29T11:56:48;102153.84;;;8.85;61.37
71344;BME280;59146;43.850;25.948;2022-12-29T12:01:52;102133.91;;;8.52;62.23
71344;BME280;59146;43.850;25.948;2022-12-29T12:04:21;102087.38;;;8.40;62.25
71344;BME280;59146;43.850;25.948;2022-12-29T12:09:29;102151.22;;;8.54;62.60
71344;BME280;59146;43.850;25.948;2022-12-29T12:11:57;102140.13;;;8.78;61.57
71344;BME280;59146;43.850;25.948;2022-12-29T12:14:36;102064.13;;;8.32;61.84
71344;BME280;59146;43.850;25.948;2022-12-29T12:17:18;102150.84;;;8.99;61.56
71344;BME280;59146;43.850;25.948;2022-12-29T12:22:46;102131.03;;;8.93;60.75
71344;BME280;59146;43.850;25.948;2022-12-29T12:25:19;102056.13;;;8.38;60.82
71344;BME280;59146;43.850;25.948;2022-12-29T12:27:57;102136.97;;;8.98;60.17
71344;BME280;59146;43.850;25.948;2022-12-29T12:30:28;102081.63;;;8.89;58.89
71344;BME280;59146;43.850;25.948;2022-12-29T12:32:56;102125.66;;;9.28;58.69
71344;BME280;59146;43.850;25.948;2022-12-29T12:48:48;102034.78;;;8.87;58.04
71344;BME280;59146;43.850;25.948;2022-12-29T12:55:01;102094.63;;;9.48;56.16
71344;BME280;59146;43.850;25.948;2022-12-29T12:57:06;102012.94;;;8.91;56.26
71344;BME280;59146;43.850;25.948;2022-12-29T12:59:56;102117.84;;;9.56;56.88
71344;BME280;59146;43.850;25.948;2022-12-29T13:13:59;102111.22;;;9.74;54.61
71344;BME280;59146;43.850;25.948;2022-12-29T13:21:57;102108.94;;;9.63;55.64
71344;BME280;59146;43.850;25.948;2022-12-29T13:24:40;102111.88;;;9.52;56.58
71344;BME280;59146;43.850;25.948;2022-12-29T13:30:03;102056.75;;;9.08;57.08
71344;BME280;59146;43.850;25.948;2022-12-29T13:35:51;102117.25;;;9.19;58.54
71344;BME280;59146;43.850;25.948;2022-12-29T13:40:51;102069.84;;;8.75;58.83
71344;BME280;59146;43.850;25.948;2022-12-29T13:43:19;102114.53;;;8.93;59.41
71344;BME280;59146;43.850;25.948;2022-12-29T13:45:45;102102.59;;;8.86;59.83
71344;BME280;59146;43.850;25.948;2022-12-29T13:48:29;102107.78;;;8.86;59.92
71344;BME280;59146;43.850;25.948;2022-12-29T13:50:59;102090.88;;;8.69;59.95
71344;BME280;59146;43.850;25.948;2022-12-29T13:54:11;102107.81;;;8.84;59.83
71344;BME280;59146;43.850;25.948;2022-12-29T13:56:34;102084.00;;;8.35;60.93
71344;BME280;59146;43.850;25.948;2022-12-29T14:01:59;102105.78;;;8.32;61.64
71344;BME280;59146;43.850;25.948;2022-12-29T14:04:30;102070.66;;;8.15;61.46
71344;BME280;59146;43.850;25.948;2022-12-29T14:07:18;102108.25;;;8.37;61.08
71344;BME280;59146;43.850;25.948;2022-12-29T14:09:55;102037.63;;;7.83;60.88
71344;BME280;59146;43.850;25.948;2022-12-29T14:17:40;102063.78;;;7.77;60.95
71344;BME280;59146;43.850;25.948;2022-12-29T14:20:17;102109.16;;;8.00;61.04
71344;BME280;59146;43.850;25.948;2022-12-29T14:23:24;102111.34;;;8.17;60.72
71344;BME280;59146;43.850;25.948;2022-12-29T14:33:41;102086.41;;;7.73;61.89
71344;BME280;59146;43.850;25.948;2022-12-29T14:39:03;102057.16;;;7.27;62.85
71344;BME280;59146;43.850;25.948;2022-12-29T14:41:38;102054.09;;;7.47;62.47
71344;BME280;59146;43.850;25.948;2022-12-29T14:49:30;102083.75;;;7.38;63.38
71344;BME280;59146;43.850;25.948;2022-12-29T14:52:29;102110.88;;;7.65;62.33
71344;BME280;59146;43.850;25.948;2022-12-29T14:55:04;102069.47;;;7.19;63.30
71344;BME280;59146;43.850;25.948;2022-12-29T14:57:49;102103.84;;;7.32;63.75
71344;BME280;59146;43.850;25.948;2022-12-29T15:00:21;102104.47;;;7.43;63.48
71344;BME280;59146;43.850;25.948;2022-12-29T15:03:04;102096.19;;;7.26;63.40
71344;BME280;59146;43.850;25.948;2022-12-29T15:05:37;101940.72;;;6.28;63.83
71344;BME280;59146;43.850;25.948;2022-12-29T15:08:06;102021.84;;;6.79;64.06
71344;BME280;59146;43.850;25.948;2022-12-29T15:10:38;102094.34;;;7.31;63.47
71344;BME280;59146;43.850;25.948;2022-12-29T15:13:14;102090.09;;;7.27;63.46